sensor_id;sensor_type;location;lat;lon;timestamp;P1;durP1;ratioP1;P2;durP2;ratioP2
18917;SDS011;9591;52.742;13.650;2022-12-29T00:00:10;4.17;;;3.50;;
18917;SDS011;9591;52.742;13.650;2022-12-29T00:02:59;2.93;;;2.23;;
18917;SDS011;9591;52.742;13.650;2022-12-29T00:05:53;3.00;;;2.37;;
18917;SDS011;9591;52.742;13.650;2022-12-29T00:08:40;2.77;;;2.00;;
18917;SDS011;9591;52.742;13.650;2022-12-29T00:11:27;3.53;;;2.20;;
18917;SDS011;9591;52.742;13.650;2022-12-29T00:14:14;2.83;;;2.23;;
18917;SDS011;9591;52.742;13.650;2022-12-29T00:17:18;2.70;;;2.00;;
18917;SDS011;9591;52.742;13.650;2022-12-29T00:20:07;2.40;;;2.20;;
18917;SDS011;9591;52.742;13.650;2022-12-29T00:23:12;3.87;;;1.70;;
18917;SDS011;9591;52.742;13.650;2022-12-29T00:26:17;2.40;;;2.00;;
18917;SDS011;9591;52.742;13.650;2022-12-29T00:29:21;5.23;;;2.00;;
18917;SDS011;9591;52.742;13.650;2022-12-29T00:32:25;2.10;;;1.90;;
18917;SDS011;9591;52.742;13.650;2022-12-29T00:35:31;3.33;;;2.27;;
18917;SDS011;9591;52.742;13.650;2022-12-29T00:38:25;1.93;;;1.83;;
18917;SDS011;9591;52.742;13.650;2022-12-29T00:41:30;2.40;;;2.10;;
18917;SDS011;9591;52.742;13.650;2022-12-29T00:44:35;2.23;;;2.00;;
18917;SDS011;9591;52.742;13.650;2022-12-29T00:47:21;3.47;;;2.10;;
18917;SDS011;9591;52.742;13.650;2022-12-29T00:50:08;4.83;;;2.20;;
18917;SDS011;9591;52.742;13.650;2022-12-29T00:52:56;3.70;;;2.40;;
18917;SDS011;9591;52.742;13.650;2022-12-29T00:55:42;7.53;;;2.00;;
18917;SDS011;9591;52.742;13.650;2022-12-29T00:58:30;3.93;;;2.40;;
18917;SDS011;9591;52.742;13.650;2022-12-29T01:01:17;3.17;;;2.20;;
18917;SDS011;9591;52.742;13.650;2022-12-29T01:04:04;3.13;;;1.97;;
18917;SDS011;9591;52.742;13.650;2022-12-29T01:06:51;5.67;;;2.00;;
18917;SDS011;9591;52.742;13.650;2022-12-29T01:09:40;2.83;;;1.90;;
18917;SDS011;9591;52.742;13.650;2022-12-29T01:12:44;2.43;;;1.97;;
18917;SDS011;9591;52.742;13.650;2022-12-29T01:15:32;2.13;;;1.93;;
18917;SDS011;9591;52.742;13.650;2022-12-29T01:18:19;2.67;;;2.20;;
18917;SDS011;9591;52.742;13.650;2022-12-29T01:21:09;2.93;;;2.20;;
18917;SDS011;9591;52.742;13.650;2022-12-29T01:23:56;2.27;;;2.00;;
18917;SDS011;9591;52.742;13.650;2022-12-29T01:26:44;2.30;;;2.10;;
18917;SDS011;9591;52.742;13.650;2022-12-29T01:29:34;3.37;;;2.10;;
18917;SDS011;9591;52.742;13.650;2022-12-29T01:32:22;2.73;;;2.10;;
18917;SDS011;9591;52.742;13.650;2022-12-29T01:35:09;3.50;;;2.10;;
18917;SDS011;9591;52.742;13.650;2022-12-29T01:37:56;3.27;;;1.90;;
18917;SDS011;9591;52.742;13.650;2022-12-29T01:40:43;3.53;;;1.93;;
18917;SDS011;9591;52.742;13.650;2022-12-29T01:43:39;2.40;;;2.20;;
18917;SDS011;9591;52.742;13.650;2022-12-29T01:46:28;3.17;;;2.00;;
18917;SDS011;9591;52.742;13.650;2022-12-29T01:49:18;3.77;;;2.30;;
18917;SDS011;9591;52.742;13.650;2022-12-29T01:52:08;3.20;;;2.10;;
18917;SDS011;9591;52.742;13.650;2022-12-29T01:54:55;5.30;;;1.97;;
18917;SDS011;9591;52.742;13.650;2022-12-29T01:57:44;4.33;;;2.20;;
18917;SDS011;9591;52.742;13.650;2022-12-29T02:00:36;2.30;;;1.97;;
18917;SDS011;9591;52.742;13.650;2022-12-29T02:03:24;3.23;;;2.00;;
18917;SDS011;9591;52.742;13.650;2022-12-29T02:06:14;3.57;;;2.03;;
18917;SDS011;9591;52.742;13.650;2022-12-29T02:09:04;2.00;;;1.90;;
18917;SDS011;9591;52.742;13.650;2022-12-29T02:11:51;5.13;;;2.30;;
18917;SDS011;9591;52.742;13.650;2022-12-29T02:14:39;3.67;;;2.20;;
18917;SDS011;9591;52.742;13.650;2022-12-29T02:17:29;5.77;;;1.90;;
18917;SDS011;9591;52.742;13.650;2022-12-29T02:24:04;2.10;;;1.90;;
18917;SDS011;9591;52.742;13.650;2022-12-29T02:27:12;2.37;;;2.17;;
18917;SDS011;9591;52.742;13.650;2022-12-29T02:30:26;3.60;;;2.33;;
18917;SDS011;9591;52.742;13.650;2022-12-29T02:33:37;3.73;;;2.17;;
18917;SDS011;9591;52.742;13.650;2022-12-29T02:36:38;3.00;;;1.90;;
18917;SDS011;9591;52.742;13.650;2022-12-29T02:39:31;7.40;;;2.17;;
18917;SDS011;9591;52.742;13.650;2022-12-29T02:42:23;4.70;;;2.10;;
18917;SDS011;9591;52.742;13.650;2022-12-29T02:45:18;2.03;;;1.83;;
18917;SDS011;9591;52.742;13.650;2022-12-29T02:48:13;2.57;;;2.30;;
18917;SDS011;9591;52.742;13.650;2022-12-29T02:51:07;2.30;;;2.00;;
18917;SDS011;9591;52.742;13.650;2022-12-29T02:54:01;2.20;;;2.03;;
18917;SDS011;9591;52.742;13.650;2022-12-29T02:57:08;2.53;;;2.17;;
18917;SDS011;9591;52.742;13.650;2022-12-29T02:59:58;2.70;;;1.80;;
18917;SDS011;9591;52.742;13.650;2022-12-29T03:02:53;2.00;;;1.80;;
18917;SDS011;9591;52.742;13.650;2022-12-29T03:06:03;2.33;;;1.97;;
18917;SDS011;9591;52.742;13.650;2022-12-29T03:09:00;1.60;;;1.50;;
18917;SDS011;9591;52.742;13.650;2022-12-29T03:12:07;2.30;;;2.00;;
18917;SDS011;9591;52.742;13.650;2022-12-29T03:15:06;1.93;;;1.80;;
18917;SDS011;9591;52.742;13.650;2022-12-29T03:18:17;7.07;;;2.30;;
18917;SDS011;9591;52.742;13.650;2022-12-29T03:21:11;1.90;;;1.80;;
18917;SDS011;9591;52.742;13.650;2022-12-29T03:24:02;2.27;;;2.00;;
18917;SDS011;9591;52.742;13.650;2022-12-29T03:26:49;2.27;;;2.00;;
18917;SDS011;9591;52.742;13.650;2022-12-29T03:29:39;2.97;;;2.23;;
18917;SDS011;9591;52.742;13.650;2022-12-29T03:32:38;2.13;;;1.70;;
18917;SDS011;9591;52.742;13.650;2022-12-29T03:35:31;3.00;;;1.83;;
18917;SDS011;9591;52.742;13.650;2022-12-29T03:38:30;3.20;;;2.00;;
18917;SDS011;9591;52.742;13.650;2022-12-29T03:41:22;3.80;;;2.20;;
18917;SDS011;9591;52.742;13.650;2022-12-29T03:44:14;5.80;;;2.43;;
18917;SDS011;9591;52.742;13.650;2022-12-29T03:47:01;2.50;;;2.30;;
18917;SDS011;9591;52.742;13.650;2022-12-29T03:49:49;3.37;;;1.93;;
18917;SDS011;9591;52.742;13.650;2022-12-29T03:52:36;2.40;;;1.80;;
18917;SDS011;9591;52.742;13.650;2022-12-29T03:55:26;2.10;;;1.90;;
18917;SDS011;9591;52.742;13.650;2022-12-29T03:58:14;2.20;;;2.00;;
18917;SDS011;9591;52.742;13.650;2022-12-29T04:01:16;3.30;;;1.50;;
18917;SDS011;9591;52.742;13.650;2022-12-29T04:04:04;2.57;;;1.80;;
18917;SDS011;9591;52.742;13.650;2022-12-29T04:06:51;2.97;;;1.90;;
18917;SDS011;9591;52.742;13.650;2022-12-29T04:09:39;2.87;;;1.90;;
18917;SDS011;9591;52.742;13.650;2022-12-29T04:12:30;3.47;;;1.77;;
18917;SDS011;9591;52.742;13.650;2022-12-29T04:15:17;3.60;;;1.60;;
18917;SDS011;9591;52.742;13.650;2022-12-29T04:18:04;2.40;;;1.70;;
18917;SDS011;9591;52.742;13.650;2022-12-29T04:20:51;2.60;;;1.73;;
18917;SDS011;9591;52.742;13.650;2022-12-29T04:23:49;1.60;;;1.43;;
18917;SDS011;9591;52.742;13.650;2022-12-29T04:26:36;2.20;;;1.60;;
18917;SDS011;9591;52.742;13.650;2022-12-29T04:29:43;2.33;;;2.10;;
18917;SDS011;9591;52.742;13.650;2022-12-29T04:32:48;2.70;;;1.73;;
18917;SDS011;9591;52.742;13.650;2022-12-29T04:35:35;1.90;;;1.80;;
18917;SDS011;9591;52.742;13.650;2022-12-29T04:38:23;1.70;;;1.60;;
18917;SDS011;9591;52.742;13.650;2022-12-29T04:41:10;3.23;;;1.97;;
18917;SDS011;9591;52.742;13.650;2022-12-29T04:43:57;3.33;;;1.93;;
18917;SDS011;9591;52.742;13.650;2022-12-29T04:46:54;2.67;;;2.20;;
18917;SDS011;9591;52.742;13.650;2022-12-29T04:50:06;3.13;;;1.83;;
18917;SDS011;9591;52.742;13.650;2022-12-29T04:53:06;1.80;;;1.70;;
18917;SDS011;9591;52.742;13.650;2022-12-29T04:55:53;2.67;;;2.03;;
18917;SDS011;9591;52.742;13.650;2022-12-29T04:58:40;2.10;;;1.70;;
18917;SDS011;9591;52.742;13.650;2022-12-29T05:01:27;1.70;;;1.60;;
18917;SDS011;9591;52.742;13.650;2022-12-29T05:04:16;1.80;;;1.70;;
18917;SDS011;9591;52.742;13.650;2022-12-29T05:07:04;2.10;;;1.90;;
18917;SDS011;9591;52.742;13.650;2022-12-29T05:09:51;3.60;;;1.70;;
18917;SDS011;9591;52.742;13.650;2022-12-29T05:12:38;2.37;;;1.67;;
18917;SDS011;9591;52.742;13.650;2022-12-29T05:15:25;2.20;;;2.00;;
18917;SDS011;9591;52.742;13.650;2022-12-29T05:18:12;1.80;;;1.70;;
18917;SDS011;9591;52.742;13.650;2022-12-29T05:21:00;4.20;;;1.97;;
18917;SDS011;9591;52.742;13.650;2022-12-29T05:23:47;1.90;;;1.80;;
18917;SDS011;9591;52.742;13.650;2022-12-29T05:26:34;4.47;;;1.90;;
18917;SDS011;9591;52.742;13.650;2022-12-29T05:29:53;1.77;;;1.67;;
18917;SDS011;9591;52.742;13.650;2022-12-29T05:32:40;1.80;;;1.70;;
18917;SDS011;9591;52.742;13.650;2022-12-29T05:35:27;3.67;;;1.80;;
18917;SDS011;9591;52.742;13.650;2022-12-29T05:38:15;2.20;;;1.80;;
18917;SDS011;9591;52.742;13.650;2022-12-29T05:41:02;2.40;;;1.90;;
18917;SDS011;9591;52.742;13.650;2022-12-29T05:44:19;3.00;;;2.00;;
18917;SDS011;9591;52.742;13.650;2022-12-29T05:47:24;2.20;;;2.00;;
18917;SDS011;9591;52.742;13.650;2022-12-29T05:50:30;2.80;;;1.97;;
18917;SDS011;9591;52.742;13.650;2022-12-29T05:53:30;1.50;;;1.40;;
18917;SDS011;9591;52.742;13.650;2022-12-29T05:56:18;2.07;;;1.90;;
18917;SDS011;9591;52.742;13.650;2022-12-29T05:59:11;3.80;;;1.80;;
18917;SDS011;9591;52.742;13.650;2022-12-29T06:02:00;2.83;;;1.70;;
18917;SDS011;9591;52.742;13.650;2022-12-29T06:04:46;4.67;;;1.90;;
18917;SDS011;9591;52.742;13.650;2022-12-29T06:07:33;2.07;;;1.70;;
18917;SDS011;9591;52.742;13.650;2022-12-29T06:10:22;2.00;;;1.60;;
18917;SDS011;9591;52.742;13.650;2022-12-29T06:13:17;2.37;;;1.63;;
18917;SDS011;9591;52.742;13.650;2022-12-29T06:16:06;2.03;;;1.60;;
18917;SDS011;9591;52.742;13.650;2022-12-29T06:18:55;2.33;;;2.13;;
18917;SDS011;9591;52.742;13.650;2022-12-29T06:21:41;2.47;;;1.77;;
18917;SDS011;9591;52.742;13.650;2022-12-29T06:24:28;2.33;;;2.00;;
18917;SDS011;9591;52.742;13.650;2022-12-29T06:27:16;2.10;;;1.90;;
18917;SDS011;9591;52.742;13.650;2022-12-29T06:30:05;3.07;;;1.90;;
18917;SDS011;9591;52.742;13.650;2022-12-29T06:32:55;1.93;;;1.73;;
18917;SDS011;9591;52.742;13.650;2022-12-29T06:35:42;1.60;;;1.50;;
18917;SDS011;9591;52.742;13.650;2022-12-29T06:38:32;1.90;;;1.70;;
18917;SDS011;9591;52.742;13.650;2022-12-29T06:41:20;1.70;;;1.60;;
18917;SDS011;9591;52.742;13.650;2022-12-29T06:44:41;2.63;;;1.93;;
18917;SDS011;9591;52.742;13.650;2022-12-29T06:47:27;5.53;;;1.60;;
18917;SDS011;9591;52.742;13.650;2022-12-29T06:50:14;1.93;;;1.73;;
18917;SDS011;9591;52.742;13.650;2022-12-29T06:53:01;2.23;;;1.90;;
18917;SDS011;9591;52.742;13.650;2022-12-29T06:55:48;1.57;;;1.40;;
18917;SDS011;9591;52.742;13.650;2022-12-29T06:58:35;3.73;;;2.00;;
18917;SDS011;9591;52.742;13.650;2022-12-29T07:01:23;4.77;;;2.03;;
18917;SDS011;9591;52.742;13.650;2022-12-29T07:04:10;2.33;;;1.60;;
18917;SDS011;9591;52.742;13.650;2022-12-29T07:06:57;1.50;;;1.40;;
18917;SDS011;9591;52.742;13.650;2022-12-29T07:09:44;1.93;;;1.40;;
18917;SDS011;9591;52.742;13.650;2022-12-29T07:12:31;1.90;;;1.80;;
18917;SDS011;9591;52.742;13.650;2022-12-29T07:15:17;2.33;;;1.67;;
18917;SDS011;9591;52.742;13.650;2022-12-29T07:18:05;1.73;;;1.57;;
18917;SDS011;9591;52.742;13.650;2022-12-29T07:20:52;2.03;;;1.60;;
18917;SDS011;9591;52.742;13.650;2022-12-29T07:23:39;2.07;;;1.40;;
18917;SDS011;9591;52.742;13.650;2022-12-29T07:26:27;2.80;;;1.73;;
18917;SDS011;9591;52.742;13.650;2022-12-29T07:29:20;2.17;;;1.73;;
18917;SDS011;9591;52.742;13.650;2022-12-29T07:32:07;2.17;;;1.60;;
18917;SDS011;9591;52.742;13.650;2022-12-29T07:34:55;2.20;;;1.40;;
18917;SDS011;9591;52.742;13.650;2022-12-29T07:37:42;3.90;;;1.60;;
18917;SDS011;9591;52.742;13.650;2022-12-29T07:40:29;1.53;;;1.43;;
18917;SDS011;9591;52.742;13.650;2022-12-29T07:43:16;1.63;;;1.50;;
18917;SDS011;9591;52.742;13.650;2022-12-29T07:46:23;1.33;;;1.27;;
18917;SDS011;9591;52.742;13.650;2022-12-29T07:49:29;2.10;;;1.47;;
18917;SDS011;9591;52.742;13.650;2022-12-29T07:52:18;1.57;;;1.47;;
18917;SDS011;9591;52.742;13.650;2022-12-29T07:55:05;2.50;;;1.67;;
18917;SDS011;9591;52.742;13.650;2022-12-29T07:57:53;1.80;;;1.70;;
18917;SDS011;9591;52.742;13.650;2022-12-29T08:00:39;1.70;;;1.60;;
18917;SDS011;9591;52.742;13.650;2022-12-29T08:03:26;1.10;;;1.00;;
18917;SDS011;9591;52.742;13.650;2022-12-29T08:06:13;2.30;;;1.60;;
18917;SDS011;9591;52.742;13.650;2022-12-29T08:09:01;1.20;;;1.10;;
18917;SDS011;9591;52.742;13.650;2022-12-29T08:11:58;1.60;;;1.50;;
18917;SDS011;9591;52.742;13.650;2022-12-29T08:14:45;1.30;;;1.20;;
18917;SDS011;9591;52.742;13.650;2022-12-29T08:17:32;1.80;;;1.10;;
18917;SDS011;9591;52.742;13.650;2022-12-29T08:20:19;1.60;;;1.50;;
18917;SDS011;9591;52.742;13.650;2022-12-29T08:23:06;2.00;;;1.23;;
18917;SDS011;9591;52.742;13.650;2022-12-29T08:25:57;1.23;;;1.23;;
18917;SDS011;9591;52.742;13.650;2022-12-29T08:28:44;1.13;;;0.97;;
18917;SDS011;9591;52.742;13.650;2022-12-29T08:31:31;1.27;;;1.27;;
18917;SDS011;9591;52.742;13.650;2022-12-29T08:34:18;2.10;;;1.30;;
18917;SDS011;9591;52.742;13.650;2022-12-29T08:37:05;2.77;;;1.77;;
18917;SDS011;9591;52.742;13.650;2022-12-29T08:39:52;1.53;;;1.40;;
18917;SDS011;9591;52.742;13.650;2022-12-29T08:42:40;1.50;;;1.40;;
18917;SDS011;9591;52.742;13.650;2022-12-29T08:45:27;2.93;;;1.40;;
18917;SDS011;9591;52.742;13.650;2022-12-29T08:48:14;1.50;;;1.40;;
18917;SDS011;9591;52.742;13.650;2022-12-29T08:51:03;1.63;;;1.30;;
18917;SDS011;9591;52.742;13.650;2022-12-29T08:53:50;2.50;;;1.40;;
18917;SDS011;9591;52.742;13.650;2022-12-29T08:56:38;4.20;;;1.57;;
18917;SDS011;9591;52.742;13.650;2022-12-29T08:59:27;3.63;;;1.67;;
18917;SDS011;9591;52.742;13.650;2022-12-29T09:02:13;1.90;;;1.63;;
18917;SDS011;9591;52.742;13.650;2022-12-29T09:05:08;2.03;;;1.50;;
18917;SDS011;9591;52.742;13.650;2022-12-29T09:07:55;1.40;;;1.30;;
18917;SDS011;9591;52.742;13.650;2022-12-29T09:10:43;1.50;;;1.40;;
18917;SDS011;9591;52.742;13.650;2022-12-29T09:13:30;2.10;;;1.93;;
18917;SDS011;9591;52.742;13.650;2022-12-29T09:16:20;2.60;;;1.50;;
18917;SDS011;9591;52.742;13.650;2022-12-29T09:19:08;3.03;;;1.40;;
18917;SDS011;9591;52.742;13.650;2022-12-29T09:21:55;3.57;;;1.50;;
18917;SDS011;9591;52.742;13.650;2022-12-29T09:24:42;4.03;;;1.87;;
18917;SDS011;9591;52.742;13.650;2022-12-29T09:27:29;2.33;;;1.67;;
18917;SDS011;9591;52.742;13.650;2022-12-29T09:30:16;2.80;;;1.50;;
18917;SDS011;9591;52.742;13.650;2022-12-29T09:33:04;2.13;;;1.37;;
18917;SDS011;9591;52.742;13.650;2022-12-29T09:35:51;1.50;;;1.40;;
18917;SDS011;9591;52.742;13.650;2022-12-29T09:38:39;1.83;;;1.50;;
18917;SDS011;9591;52.742;13.650;2022-12-29T09:41:26;2.83;;;1.60;;
18917;SDS011;9591;52.742;13.650;2022-12-29T09:44:22;2.23;;;1.40;;
18917;SDS011;9591;52.742;13.650;2022-12-29T09:47:13;2.17;;;1.50;;
18917;SDS011;9591;52.742;13.650;2022-12-29T09:50:05;4.33;;;1.67;;
18917;SDS011;9591;52.742;13.650;2022-12-29T09:53:08;5.23;;;1.50;;
18917;SDS011;9591;52.742;13.650;2022-12-29T09:56:01;1.53;;;1.30;;
18917;SDS011;9591;52.742;13.650;2022-12-29T09:58:49;2.73;;;1.33;;
18917;SDS011;9591;52.742;13.650;2022-12-29T10:01:41;3.23;;;1.27;;
18917;SDS011;9591;52.742;13.650;2022-12-29T10:04:32;1.73;;;1.50;;
18917;SDS011;9591;52.742;13.650;2022-12-29T10:07:24;2.20;;;1.30;;
18917;SDS011;9591;52.742;13.650;2022-12-29T10:10:20;1.50;;;1.37;;
18917;SDS011;9591;52.742;13.650;2022-12-29T10:13:19;2.70;;;1.57;;
18917;SDS011;9591;52.742;13.650;2022-12-29T10:16:18;1.63;;;1.40;;
18917;SDS011;9591;52.742;13.650;2022-12-29T10:19:23;1.50;;;1.40;;
18917;SDS011;9591;52.742;13.650;2022-12-29T10:22:38;1.40;;;1.30;;
18917;SDS011;9591;52.742;13.650;2022-12-29T10:25:39;1.47;;;1.37;;
18917;SDS011;9591;52.742;13.650;2022-12-29T10:28:33;3.57;;;1.70;;
18917;SDS011;9591;52.742;13.650;2022-12-29T10:31:27;3.67;;;1.33;;
18917;SDS011;9591;52.742;13.650;2022-12-29T10:34:21;1.37;;;1.30;;
18917;SDS011;9591;52.742;13.650;2022-12-29T10:37:12;1.73;;;1.40;;
18917;SDS011;9591;52.742;13.650;2022-12-29T10:40:22;4.03;;;1.47;;
18917;SDS011;9591;52.742;13.650;2022-12-29T10:43:23;1.63;;;1.33;;
18917;SDS011;9591;52.742;13.650;2022-12-29T10:46:12;2.40;;;1.50;;
18917;SDS011;9591;52.742;13.650;2022-12-29T10:49:02;1.70;;;1.60;;
18917;SDS011;9591;52.742;13.650;2022-12-29T10:51:49;2.13;;;1.67;;
18917;SDS011;9591;52.742;13.650;2022-12-29T10:54:41;2.47;;;1.83;;
18917;SDS011;9591;52.742;13.650;2022-12-29T10:57:36;2.17;;;1.37;;
18917;SDS011;9591;52.742;13.650;2022-12-29T11:00:26;2.37;;;1.30;;
18917;SDS011;9591;52.742;13.650;2022-12-29T11:06:28;2.00;;;1.57;;
18917;SDS011;9591;52.742;13.650;2022-12-29T11:09:16;3.00;;;1.90;;
18917;SDS011;9591;52.742;13.650;2022-12-29T11:12:27;1.50;;;1.40;;
18917;SDS011;9591;52.742;13.650;2022-12-29T11:15:17;4.13;;;1.60;;
18917;SDS011;9591;52.742;13.650;2022-12-29T11:18:04;1.23;;;1.23;;
18917;SDS011;9591;52.742;13.650;2022-12-29T11:20:51;1.80;;;1.33;;
18917;SDS011;9591;52.742;13.650;2022-12-29T11:23:40;1.70;;;1.50;;
18917;SDS011;9591;52.742;13.650;2022-12-29T11:26:28;3.70;;;1.40;;
18917;SDS011;9591;52.742;13.650;2022-12-29T11:29:26;2.30;;;1.40;;
18917;SDS011;9591;52.742;13.650;2022-12-29T11:32:18;1.63;;;1.40;;
18917;SDS011;9591;52.742;13.650;2022-12-29T11:35:17;1.67;;;1.40;;
18917;SDS011;9591;52.742;13.650;2022-12-29T11:38:18;1.40;;;1.20;;
18917;SDS011;9591;52.742;13.650;2022-12-29T11:41:10;1.83;;;1.50;;
18917;SDS011;9591;52.742;13.650;2022-12-29T11:44:00;2.57;;;1.70;;
18917;SDS011;9591;52.742;13.650;2022-12-29T11:46:50;4.33;;;1.50;;
18917;SDS011;9591;52.742;13.650;2022-12-29T11:49:39;2.97;;;1.47;;
18917;SDS011;9591;52.742;13.650;2022-12-29T11:52:26;2.00;;;1.50;;
18917;SDS011;9591;52.742;13.650;2022-12-29T11:55:17;4.97;;;1.20;;
18917;SDS011;9591;52.742;13.650;2022-12-29T11:58:11;1.80;;;1.30;;
18917;SDS011;9591;52.742;13.650;2022-12-29T12:01:02;1.90;;;1.30;;
18917;SDS011;9591;52.742;13.650;2022-12-29T12:03:55;5.20;;;1.30;;
18917;SDS011;9591;52.742;13.650;2022-12-29T12:06:49;2.63;;;1.30;;
18917;SDS011;9591;52.742;13.650;2022-12-29T12:09:45;1.30;;;1.20;;
18917;SDS011;9591;52.742;13.650;2022-12-29T12:12:43;0.97;;;0.97;;
18917;SDS011;9591;52.742;13.650;2022-12-29T12:15:35;0.97;;;0.97;;
18917;SDS011;9591;52.742;13.650;2022-12-29T12:18:33;1.60;;;1.20;;
18917;SDS011;9591;52.742;13.650;2022-12-29T12:21:27;1.17;;;1.07;;
18917;SDS011;9591;52.742;13.650;2022-12-29T12:24:36;0.93;;;0.93;;
18917;SDS011;9591;52.742;13.650;2022-12-29T12:27:28;1.57;;;1.10;;
18917;SDS011;9591;52.742;13.650;2022-12-29T12:30:21;0.80;;;0.80;;
18917;SDS011;9591;52.742;13.650;2022-12-29T12:33:13;2.70;;;1.00;;
18917;SDS011;9591;52.742;13.650;2022-12-29T12:36:09;2.40;;;1.00;;
18917;SDS011;9591;52.742;13.650;2022-12-29T12:39:11;1.43;;;1.00;;
18917;SDS011;9591;52.742;13.650;2022-12-29T12:42:09;1.30;;;1.20;;
18917;SDS011;9591;52.742;13.650;2022-12-29T12:45:27;1.13;;;0.90;;
18917;SDS011;9591;52.742;13.650;2022-12-29T12:48:26;1.10;;;1.00;;
18917;SDS011;9591;52.742;13.650;2022-12-29T12:51:40;3.23;;;1.10;;
18917;SDS011;9591;52.742;13.650;2022-12-29T12:54:38;0.73;;;0.73;;
18917;SDS011;9591;52.742;13.650;2022-12-29T12:57:40;1.20;;;0.80;;
18917;SDS011;9591;52.742;13.650;2022-12-29T13:00:38;2.83;;;1.07;;
18917;SDS011;9591;52.742;13.650;2022-12-29T13:03:35;1.83;;;0.93;;
18917;SDS011;9591;52.742;13.650;2022-12-29T13:06:35;0.90;;;0.90;;
18917;SDS011;9591;52.742;13.650;2022-12-29T13:09:41;1.10;;;1.10;;
18917;SDS011;9591;52.742;13.650;2022-12-29T13:12:40;1.53;;;1.10;;
18917;SDS011;9591;52.742;13.650;2022-12-29T13:15:39;1.67;;;0.90;;
18917;SDS011;9591;52.742;13.650;2022-12-29T13:18:31;1.10;;;1.10;;
18917;SDS011;9591;52.742;13.650;2022-12-29T13:21:35;2.20;;;0.97;;
18917;SDS011;9591;52.742;13.650;2022-12-29T13:24:47;1.20;;;1.20;;
18917;SDS011;9591;52.742;13.650;2022-12-29T13:27:44;0.77;;;0.77;;
18917;SDS011;9591;52.742;13.650;2022-12-29T13:30:39;0.80;;;0.80;;
18917;SDS011;9591;52.742;13.650;2022-12-29T13:33:34;0.97;;;0.90;;
18917;SDS011;9591;52.742;13.650;2022-12-29T13:36:29;3.20;;;0.90;;
18917;SDS011;9591;52.742;13.650;2022-12-29T13:39:24;0.90;;;0.90;;
18917;SDS011;9591;52.742;13.650;2022-12-29T13:42:17;0.80;;;0.80;;
18917;SDS011;9591;52.742;13.650;2022-12-29T13:45:09;0.80;;;0.80;;
18917;SDS011;9591;52.742;13.650;2022-12-29T13:48:01;0.90;;;0.90;;
18917;SDS011;9591;52.742;13.650;2022-12-29T13:50:52;0.70;;;0.70;;
18917;SDS011;9591;52.742;13.650;2022-12-29T13:53:47;2.47;;;1.00;;
18917;SDS011;9591;52.742;13.650;2022-12-29T13:56:48;0.80;;;0.80;;
18917;SDS011;9591;52.742;13.650;2022-12-29T13:59:40;1.10;;;0.90;;
18917;SDS011;9591;52.742;13.650;2022-12-29T14:02:41;1.23;;;1.00;;
18917;SDS011;9591;52.742;13.650;2022-12-29T14:05:37;1.20;;;1.20;;
18917;SDS011;9591;52.742;13.650;2022-12-29T14:08:24;1.80;;;0.93;;
18917;SDS011;9591;52.742;13.650;2022-12-29T14:11:11;1.20;;;1.10;;
18917;SDS011;9591;52.742;13.650;2022-12-29T14:14:09;0.87;;;0.87;;
18917;SDS011;9591;52.742;13.650;2022-12-29T14:17:08;1.00;;;0.97;;
18917;SDS011;9591;52.742;13.650;2022-12-29T14:20:01;2.20;;;1.00;;
18917;SDS011;9591;52.742;13.650;2022-12-29T14:22:57;0.93;;;0.90;;
18917;SDS011;9591;52.742;13.650;2022-12-29T14:25:52;1.03;;;0.97;;
18917;SDS011;9591;52.742;13.650;2022-12-29T14:28:45;0.97;;;0.90;;
18917;SDS011;9591;52.742;13.650;2022-12-29T14:31:33;0.83;;;0.83;;
18917;SDS011;9591;52.742;13.650;2022-12-29T14:34:30;1.63;;;1.20;;
18917;SDS011;9591;52.742;13.650;2022-12-29T14:37:26;1.63;;;1.17;;
18917;SDS011;9591;52.742;13.650;2022-12-29T14:40:15;1.10;;;1.07;;
18917;SDS011;9591;52.742;13.650;2022-12-29T14:43:05;1.30;;;1.20;;
18917;SDS011;9591;52.742;13.650;2022-12-29T14:46:00;1.10;;;1.10;;
18917;SDS011;9591;52.742;13.650;2022-12-29T14:48:52;2.13;;;1.20;;
18917;SDS011;9591;52.742;13.650;2022-12-29T14:51:42;1.40;;;1.00;;
18917;SDS011;9591;52.742;13.650;2022-12-29T14:57:39;1.00;;;1.00;;
18917;SDS011;9591;52.742;13.650;2022-12-29T15:00:29;2.10;;;1.20;;
18917;SDS011;9591;52.742;13.650;2022-12-29T15:03:20;1.00;;;1.00;;
18917;SDS011;9591;52.742;13.650;2022-12-29T15:06:10;1.90;;;1.10;;
18917;SDS011;9591;52.742;13.650;2022-12-29T15:09:03;1.50;;;1.30;;
18917;SDS011;9591;52.742;13.650;2022-12-29T15:11:59;1.23;;;1.10;;
18917;SDS011;9591;52.742;13.650;2022-12-29T15:14:58;1.17;;;1.00;;
18917;SDS011;9591;52.742;13.650;2022-12-29T15:17:46;11.30;;;2.30;;
18917;SDS011;9591;52.742;13.650;2022-12-29T15:20:34;1.43;;;1.20;;
18917;SDS011;9591;52.742;13.650;2022-12-29T15:23:21;2.83;;;1.20;;
18917;SDS011;9591;52.742;13.650;2022-12-29T15:26:08;2.60;;;1.57;;
18917;SDS011;9591;52.742;13.650;2022-12-29T15:28:57;2.50;;;1.10;;
18917;SDS011;9591;52.742;13.650;2022-12-29T15:31:45;3.67;;;1.30;;
18917;SDS011;9591;52.742;13.650;2022-12-29T15:34:33;3.90;;;1.50;;
18917;SDS011;9591;52.742;13.650;2022-12-29T15:37:21;1.60;;;1.50;;
18917;SDS011;9591;52.742;13.650;2022-12-29T15:40:19;1.40;;;1.30;;
18917;SDS011;9591;52.742;13.650;2022-12-29T15:43:13;1.63;;;1.30;;
18917;SDS011;9591;52.742;13.650;2022-12-29T15:46:32;2.40;;;1.20;;
18917;SDS011;9591;52.742;13.650;2022-12-29T15:49:19;4.90;;;1.20;;
18917;SDS011;9591;52.742;13.650;2022-12-29T15:52:17;5.73;;;1.30;;
18917;SDS011;9591;52.742;13.650;2022-12-29T15:55:05;1.13;;;1.13;;
18917;SDS011;9591;52.742;13.650;2022-12-29T15:58:05;1.40;;;1.20;;
18917;SDS011;9591;52.742;13.650;2022-12-29T16:01:04;1.87;;;1.20;;
18917;SDS011;9591;52.742;13.650;2022-12-29T16:03:53;2.03;;;1.10;;
18917;SDS011;9591;52.742;13.650;2022-12-29T16:06:44;1.33;;;1.13;;
18917;SDS011;9591;52.742;13.650;2022-12-29T16:09:41;3.23;;;1.20;;
18917;SDS011;9591;52.742;13.650;2022-12-29T16:12:30;1.93;;;1.00;;
18917;SDS011;9591;52.742;13.650;2022-12-29T16:15:18;1.20;;;1.20;;
18917;SDS011;9591;52.742;13.650;2022-12-29T16:18:11;1.20;;;1.20;;
18917;SDS011;9591;52.742;13.650;2022-12-29T16:21:15;2.60;;;1.50;;
18917;SDS011;9591;52.742;13.650;2022-12-29T16:24:06;1.70;;;1.40;;
18917;SDS011;9591;52.742;13.650;2022-12-29T16:26:59;1.50;;;1.40;;
18917;SDS011;9591;52.742;13.650;2022-12-29T16:29:53;1.80;;;1.70;;
18917;SDS011;9591;52.742;13.650;2022-12-29T16:32:44;1.50;;;1.40;;
18917;SDS011;9591;52.742;13.650;2022-12-29T16:35:38;2.57;;;1.63;;
18917;SDS011;9591;52.742;13.650;2022-12-29T16:38:32;2.90;;;1.83;;
18917;SDS011;9591;52.742;13.650;2022-12-29T16:41:28;1.70;;;1.60;;
18917;SDS011;9591;52.742;13.650;2022-12-29T16:44:16;1.57;;;1.47;;
18917;SDS011;9591;52.742;13.650;2022-12-29T16:47:16;1.63;;;1.53;;
18917;SDS011;9591;52.742;13.650;2022-12-29T16:50:10;1.53;;;1.43;;
18917;SDS011;9591;52.742;13.650;2022-12-29T16:52:59;1.97;;;1.40;;
18917;SDS011;9591;52.742;13.650;2022-12-29T16:55:49;2.70;;;1.30;;
18917;SDS011;9591;52.742;13.650;2022-12-29T16:58:37;2.87;;;1.63;;
18917;SDS011;9591;52.742;13.650;2022-12-29T17:01:29;2.63;;;1.63;;
18917;SDS011;9591;52.742;13.650;2022-12-29T17:04:16;1.43;;;1.33;;
18917;SDS011;9591;52.742;13.650;2022-12-29T17:07:04;2.17;;;1.93;;
18917;SDS011;9591;52.742;13.650;2022-12-29T17:10:01;1.77;;;1.67;;
18917;SDS011;9591;52.742;13.650;2022-12-29T17:12:49;3.27;;;1.57;;
18917;SDS011;9591;52.742;13.650;2022-12-29T17:15:36;6.53;;;1.83;;
18917;SDS011;9591;52.742;13.650;2022-12-29T17:18:22;3.20;;;1.50;;
18917;SDS011;9591;52.742;13.650;2022-12-29T17:21:09;2.60;;;1.80;;
18917;SDS011;9591;52.742;13.650;2022-12-29T17:23:57;6.10;;;1.70;;
18917;SDS011;9591;52.742;13.650;2022-12-29T17:26:47;3.90;;;1.63;;
18917;SDS011;9591;52.742;13.650;2022-12-29T17:29:37;2.00;;;1.50;;